createdAt,value
2022-12-06T00:01:26.687Z,2.00
2022-12-06T00:03:57.735Z,2.10
2022-12-06T00:06:27.661Z,2.10
2022-12-06T00:08:57.140Z,2.10
2022-12-06T00:11:27.023Z,2.10
2022-12-06T00:13:56.593Z,2.10
2022-12-06T00:16:25.260Z,2.10
2022-12-06T00:18:55.297Z,2.20
2022-12-06T00:21:25.627Z,2.10
2022-12-06T00:23:55.364Z,2.10
2022-12-06T00:26:24.470Z,2.10
2022-12-06T00:28:54.209Z,2.10
2022-12-06T00:31:23.896Z,2.10
2022-12-06T00:33:52.819Z,2.10
2022-12-06T00:36:23.851Z,2.10
2022-12-06T00:38:52.450Z,2.10
2022-12-06T00:41:22.632Z,2.10
2022-12-06T00:43:51.178Z,2.10
2022-12-06T00:46:21.774Z,2.10
2022-12-06T00:48:50.322Z,2.10
2022-12-06T00:51:20.252Z,2.00
2022-12-06T00:53:49.933Z,2.10
2022-12-06T00:56:18.973Z,2.10
2022-12-06T00:58:50.412Z,2.10
2022-12-06T01:01:21.558Z,2.10
2022-12-06T01:03:55.918Z,2.10
2022-12-06T01:06:28.008Z,2.20
2022-12-06T01:08:59.547Z,2.00
2022-12-06T01:11:28.495Z,2.10
2022-12-06T01:13:57.753Z,2.00
2022-12-06T01:16:27.328Z,2.00
2022-12-06T01:18:58.310Z,2.00
2022-12-06T01:21:27.378Z,2.00
2022-12-06T01:23:55.615Z,2.00
2022-12-06T01:26:27.217Z,2.00
2022-12-06T01:28:55.282Z,2.00
2022-12-06T01:31:23.594Z,1.90
2022-12-06T01:33:52.085Z,1.90
2022-12-06T01:36:21.624Z,1.90
2022-12-06T01:38:53.485Z,2.00
2022-12-06T01:41:25.092Z,1.80
2022-12-06T01:43:54.039Z,1.80
2022-12-06T01:46:32.748Z,1.80
2022-12-06T01:49:12.946Z,1.70
2022-12-06T01:51:44.699Z,1.70
2022-12-06T01:54:18.575Z,1.70
2022-12-06T01:56:48.419Z,1.70
2022-12-06T01:59:17.216Z,1.60
2022-12-06T02:01:46.945Z,1.60
2022-12-06T02:04:16.052Z,1.60
2022-12-06T02:06:45.350Z,1.60
2022-12-06T02:09:15.549Z,1.60
2022-12-06T02:11:44.012Z,1.60
2022-12-06T02:14:17.743Z,1.60
2022-12-06T02:17:15.749Z,1.70
2022-12-06T02:19:57.944Z,1.60
2022-12-06T02:22:34.314Z,1.60
2022-12-06T02:25:15.006Z,1.60
2022-12-06T02:28:06.406Z,1.60
2022-12-06T02:30:45.321Z,1.60
2022-12-06T02:33:21.634Z,1.50
2022-12-06T02:35:54.327Z,1.60
2022-12-06T02:38:32.103Z,1.50
2022-12-06T02:41:03.201Z,1.50
2022-12-06T02:43:37.041Z,1.50
2022-12-06T02:46:08.975Z,1.40
2022-12-06T02:48:38.133Z,1.40
2022-12-06T02:51:10.937Z,1.40
2022-12-06T02:53:43.154Z,1.40
2022-12-06T02:56:11.167Z,1.30
2022-12-06T02:58:39.988Z,1.30
2022-12-06T03:01:13.718Z,1.30
2022-12-06T03:03:58.729Z,1.30
2022-12-06T03:06:42.332Z,1.30
2022-12-06T03:09:22.070Z,1.30
2022-12-06T03:11:57.123Z,1.40
2022-12-06T03:14:27.839Z,1.50
2022-12-06T03:17:07.191Z,1.40
2022-12-06T03:19:38.045Z,1.40
2022-12-06T03:22:09.633Z,1.40
2022-12-06T03:24:41.179Z,1.40
2022-12-06T03:27:15.280Z,1.40
2022-12-06T03:29:49.003Z,1.50
2022-12-06T03:32:22.202Z,1.50
2022-12-06T03:34:52.971Z,1.60
2022-12-06T03:37:24.558Z,1.60
2022-12-06T03:40:03.891Z,1.60
2022-12-06T03:42:32.937Z,1.60
2022-12-06T03:45:02.157Z,1.70
2022-12-06T03:47:38.350Z,1.70
2022-12-06T03:50:11.819Z,1.70
2022-12-06T03:52:40.514Z,1.70
2022-12-06T03:55:09.977Z,1.70
2022-12-06T03:57:38.164Z,1.70
2022-12-06T04:00:08.166Z,1.70
2022-12-06T04:02:37.977Z,1.70
2022-12-06T04:05:06.482Z,1.70
2022-12-06T04:07:34.513Z,1.70
2022-12-06T04:10:03.934Z,1.70
2022-12-06T04:12:50.733Z,1.70
2022-12-06T04:15:19.702Z,1.60
2022-12-06T04:18:18.077Z,1.60
2022-12-06T04:21:06.073Z,1.70
2022-12-06T04:23:37.032Z,1.70
2022-12-06T04:26:06.662Z,1.60
2022-12-06T04:28:52.829Z,1.60
2022-12-06T04:31:38.208Z,1.50
2022-12-06T04:34:25.658Z,1.40
2022-12-06T04:37:11.147Z,1.50
2022-12-06T04:39:39.219Z,1.40
2022-12-06T04:42:24.628Z,1.40
2022-12-06T04:44:53.480Z,1.50
2022-12-06T04:47:21.612Z,1.40
2022-12-06T04:49:51.125Z,1.40
2022-12-06T04:52:19.902Z,1.40
2022-12-06T04:54:48.263Z,1.40
2022-12-06T04:57:18.523Z,1.50
2022-12-06T04:59:47.293Z,1.40
2022-12-06T05:02:16.746Z,1.50
2022-12-06T05:04:45.745Z,1.40
2022-12-06T05:07:15.177Z,1.40
2022-12-06T05:09:43.653Z,1.50
2022-12-06T05:12:11.656Z,1.40
2022-12-06T05:14:39.638Z,1.50
2022-12-06T05:17:07.587Z,1.50
2022-12-06T05:19:35.549Z,1.50
2022-12-06T05:22:03.705Z,1.50
2022-12-06T05:24:33.771Z,1.50
2022-12-06T05:27:01.734Z,1.40
2022-12-06T05:29:29.715Z,1.40
2022-12-06T05:31:57.826Z,1.30
2022-12-06T05:34:26.602Z,1.20
2022-12-06T05:36:54.952Z,1.20
2022-12-06T05:39:23.036Z,1.10
2022-12-06T05:41:52.415Z,1.10
2022-12-06T05:44:20.398Z,1.00
2022-12-06T05:46:48.622Z,0.90
2022-12-06T05:49:16.723Z,0.90
2022-12-06T05:51:44.933Z,0.90
2022-12-06T05:54:12.985Z,1.00
2022-12-06T05:56:41.008Z,0.80
2022-12-06T05:59:10.762Z,0.80
2022-12-06T06:01:39.167Z,0.70
2022-12-06T06:04:07.220Z,0.80
2022-12-06T06:06:35.286Z,0.80
2022-12-06T06:09:03.280Z,0.90
2022-12-06T06:11:32.080Z,0.80
2022-12-06T06:14:00.070Z,0.90
2022-12-06T06:16:29.988Z,0.90
2022-12-06T06:18:58.030Z,0.90
2022-12-06T06:21:26.069Z,1.00
2022-12-06T06:23:54.441Z,1.00
2022-12-06T06:26:22.730Z,1.00
2022-12-06T06:28:50.857Z,1.10
2022-12-06T06:31:19.020Z,1.10
2022-12-06T06:33:48.479Z,1.10
2022-12-06T06:36:19.671Z,1.10
2022-12-06T06:38:47.728Z,1.20
2022-12-06T06:41:15.798Z,1.20
2022-12-06T06:43:43.787Z,1.20
2022-12-06T06:46:11.953Z,1.20
2022-12-06T06:48:41.388Z,1.20
2022-12-06T06:51:14.821Z,1.20
2022-12-06T06:53:42.888Z,1.20
2022-12-06T06:56:11.157Z,1.20
2022-12-06T06:58:39.341Z,1.20
2022-12-06T07:01:09.189Z,1.30
2022-12-06T07:03:37.402Z,1.20
2022-12-06T07:06:08.958Z,1.30
2022-12-06T07:08:39.495Z,1.30
2022-12-06T07:11:07.595Z,1.30
2022-12-06T07:13:37.335Z,1.40
2022-12-06T07:16:06.853Z,1.40
2022-12-06T07:18:35.230Z,1.30
2022-12-06T07:21:05.569Z,1.40
2022-12-06T07:23:35.491Z,1.50
2022-12-06T07:26:12.303Z,1.40
2022-12-06T07:28:42.349Z,1.40
2022-12-06T07:31:11.575Z,1.50
2022-12-06T07:33:39.913Z,1.50
2022-12-06T07:36:13.555Z,1.50
2022-12-06T07:38:43.561Z,1.50
2022-12-06T07:41:31.891Z,1.60
2022-12-06T07:44:18.297Z,1.60
2022-12-06T07:46:46.691Z,1.60
2022-12-06T07:49:16.344Z,1.70
2022-12-06T07:51:44.816Z,1.70
2022-12-06T07:54:13.665Z,1.70
2022-12-06T07:56:43.630Z,1.80
2022-12-06T07:59:12.844Z,1.80
2022-12-06T08:01:42.056Z,1.90
2022-12-06T08:04:10.270Z,1.90
2022-12-06T08:06:38.768Z,1.90
2022-12-06T08:09:07.416Z,4.60
2022-12-06T08:11:36.023Z,5.70
2022-12-06T08:14:06.893Z,5.50
2022-12-06T08:16:34.979Z,4.50
2022-12-06T08:19:03.393Z,3.80
2022-12-06T08:21:31.500Z,3.50
2022-12-06T08:23:59.599Z,3.30
2022-12-06T08:26:28.118Z,3.20
2022-12-06T08:28:56.135Z,3.40
2022-12-06T08:31:25.980Z,3.30
2022-12-06T08:33:54.375Z,3.20
2022-12-06T08:36:24.026Z,3.70
2022-12-06T08:38:53.586Z,4.40
2022-12-06T08:41:39.966Z,4.70
2022-12-06T08:44:10.958Z,4.90
2022-12-06T08:46:41.152Z,4.80
2022-12-06T08:49:09.902Z,4.80
2022-12-06T08:51:38.160Z,4.50
2022-12-06T08:54:07.163Z,4.30
2022-12-06T08:56:35.752Z,4.30
2022-12-06T08:59:04.006Z,3.90
2022-12-06T09:01:37.794Z,3.80
2022-12-06T09:04:09.368Z,3.80
2022-12-06T09:06:39.802Z,3.80
2022-12-06T09:09:08.820Z,3.80
2022-12-06T09:11:40.813Z,3.80
2022-12-06T09:14:10.206Z,3.70
2022-12-06T09:16:38.594Z,3.70
2022-12-06T09:19:07.953Z,3.70
2022-12-06T09:21:35.961Z,3.70
2022-12-06T09:24:04.150Z,3.60
2022-12-06T09:26:32.177Z,3.70
2022-12-06T09:29:00.620Z,3.60
2022-12-06T09:31:28.825Z,3.60
2022-12-06T09:33:56.961Z,3.50
2022-12-06T09:36:28.309Z,3.60
2022-12-06T09:39:01.174Z,3.60
2022-12-06T09:41:58.869Z,3.60
2022-12-06T09:44:49.969Z,3.60
2022-12-06T09:47:27.979Z,3.50
2022-12-06T09:50:08.776Z,3.50
2022-12-06T09:52:49.652Z,3.50
2022-12-06T09:55:29.384Z,3.50
2022-12-06T09:58:06.919Z,3.50
2022-12-06T10:00:43.788Z,3.50
2022-12-06T10:03:38.581Z,3.50
2022-12-06T10:06:12.184Z,3.60
2022-12-06T10:09:04.954Z,3.60
2022-12-06T10:11:57.280Z,3.60
2022-12-06T10:14:40.265Z,3.70
2022-12-06T10:17:20.267Z,3.60
2022-12-06T10:19:59.907Z,3.50
2022-12-06T10:22:40.809Z,3.60
2022-12-06T10:25:15.846Z,3.60
2022-12-06T10:27:52.627Z,3.70
2022-12-06T10:30:21.454Z,3.70
2022-12-06T10:32:53.593Z,3.70
2022-12-06T10:35:35.178Z,3.80
2022-12-06T10:38:12.712Z,3.70
2022-12-06T10:40:53.609Z,3.80
2022-12-06T10:43:30.133Z,3.80
2022-12-06T10:46:25.059Z,3.80
2022-12-06T10:49:01.272Z,3.80
2022-12-06T10:51:38.110Z,3.90
2022-12-06T10:54:20.243Z,3.90
2022-12-06T10:56:53.283Z,3.80
2022-12-06T10:59:37.078Z,3.90
2022-12-06T11:02:21.343Z,4.00
2022-12-06T11:04:50.666Z,4.00
2022-12-06T11:07:25.093Z,4.00
2022-12-06T11:09:55.987Z,4.00
2022-12-06T11:12:31.617Z,3.90
2022-12-06T11:15:05.674Z,3.90
2022-12-06T11:17:37.800Z,4.00
2022-12-06T11:20:16.807Z,4.00
2022-12-06T11:22:51.649Z,3.90
2022-12-06T11:25:27.087Z,3.90
2022-12-06T11:28:01.587Z,4.00
2022-12-06T11:30:31.623Z,3.90
2022-12-06T11:33:02.944Z,4.10
2022-12-06T11:35:31.016Z,4.00
2022-12-06T11:38:03.456Z,4.00
2022-12-06T11:40:34.230Z,4.00
2022-12-06T11:43:07.395Z,4.10
2022-12-06T11:45:38.713Z,4.00
2022-12-06T11:48:15.616Z,3.90
2022-12-06T11:50:44.169Z,4.10
2022-12-06T11:53:18.785Z,4.10
2022-12-06T11:55:50.157Z,4.00
2022-12-06T11:58:26.802Z,4.00
2022-12-06T12:01:01.996Z,4.00
2022-12-06T12:03:34.212Z,4.20
2022-12-06T12:06:10.853Z,4.20
2022-12-06T12:08:39.315Z,4.10
2022-12-06T12:11:08.131Z,4.10
2022-12-06T12:13:47.721Z,4.10
2022-12-06T12:16:21.688Z,4.20
2022-12-06T12:18:57.158Z,4.20
2022-12-06T12:21:34.411Z,4.10
2022-12-06T12:24:06.042Z,4.20
2022-12-06T12:26:40.922Z,4.20
2022-12-06T12:29:22.119Z,4.20
2022-12-06T12:31:56.008Z,4.20
2022-12-06T12:34:29.811Z,4.20
2022-12-06T12:37:00.365Z,4.30
2022-12-06T12:39:35.383Z,4.50
2022-12-06T12:42:04.116Z,4.40
2022-12-06T12:44:39.106Z,4.30
2022-12-06T12:47:18.336Z,4.30
2022-12-06T12:50:01.843Z,4.40
2022-12-06T12:52:32.834Z,4.30
2022-12-06T12:55:06.368Z,4.20
2022-12-06T12:57:34.361Z,4.00
2022-12-06T13:00:04.680Z,4.10
2022-12-06T13:02:35.803Z,4.10
2022-12-06T13:05:32.142Z,4.10
2022-12-06T13:08:06.347Z,4.20
2022-12-06T13:10:37.802Z,4.20
2022-12-06T13:13:13.729Z,4.20
2022-12-06T13:15:50.725Z,4.20
2022-12-06T13:18:22.753Z,4.10
2022-12-06T13:20:52.229Z,4.20
2022-12-06T13:23:21.890Z,4.20
2022-12-06T13:25:54.360Z,4.20
2022-12-06T13:28:27.228Z,4.30
2022-12-06T13:31:01.813Z,4.30
2022-12-06T13:33:33.363Z,4.30
2022-12-06T13:36:05.946Z,4.20
2022-12-06T13:38:35.660Z,4.20
2022-12-06T13:41:05.326Z,4.20
2022-12-06T13:43:57.770Z,4.20
2022-12-06T13:46:32.622Z,4.10
2022-12-06T13:49:06.436Z,4.10
2022-12-06T13:51:50.936Z,4.10
2022-12-06T13:54:37.129Z,4.10
2022-12-06T13:57:23.607Z,4.10
2022-12-06T13:59:51.971Z,4.10
2022-12-06T14:02:54.541Z,4.10
2022-12-06T14:06:13.982Z,4.40
2022-12-06T14:08:45.342Z,4.20
2022-12-06T14:11:24.257Z,4.10
2022-12-06T14:14:02.509Z,4.10
2022-12-06T14:16:35.426Z,4.00
2022-12-06T14:19:18.708Z,4.00
2022-12-06T14:21:55.825Z,4.00
2022-12-06T14:24:28.811Z,4.00
2022-12-06T14:27:04.160Z,4.00
2022-12-06T14:29:33.608Z,4.00
2022-12-06T14:32:01.630Z,3.90
2022-12-06T14:34:32.623Z,3.90
2022-12-06T14:37:02.940Z,3.90
2022-12-06T14:39:32.719Z,3.80
2022-12-06T14:42:21.032Z,3.80
2022-12-06T14:44:50.545Z,3.80
2022-12-06T14:47:21.560Z,3.80
2022-12-06T14:50:20.201Z,3.80
2022-12-06T14:53:05.236Z,3.70
2022-12-06T14:55:35.457Z,3.70
2022-12-06T14:58:12.025Z,3.70
2022-12-06T15:00:50.141Z,3.70
2022-12-06T15:03:29.369Z,3.70
2022-12-06T15:06:18.072Z,3.70
2022-12-06T15:08:50.543Z,3.60
2022-12-06T15:11:58.922Z,3.60
2022-12-06T15:14:28.793Z,3.50
2022-12-06T15:16:59.701Z,3.40
2022-12-06T15:19:29.024Z,3.40
2022-12-06T15:21:58.511Z,3.40
2022-12-06T15:24:28.278Z,3.40
2022-12-06T15:26:56.745Z,3.30
2022-12-06T15:29:25.179Z,3.30
2022-12-06T15:31:54.829Z,3.30
2022-12-06T15:34:26.099Z,3.30
2022-12-06T15:37:15.307Z,3.30
2022-12-06T15:39:44.934Z,3.20
2022-12-06T15:42:18.331Z,3.30
2022-12-06T15:44:49.457Z,3.20
2022-12-06T15:47:18.440Z,3.20
2022-12-06T15:49:46.902Z,3.20
2022-12-06T15:52:17.713Z,3.10
2022-12-06T15:54:47.423Z,3.10
2022-12-06T15:57:15.921Z,3.10
2022-12-06T15:59:44.014Z,3.10
2022-12-06T16:02:16.226Z,3.10
2022-12-06T16:04:45.079Z,3.20
2022-12-06T16:07:18.438Z,3.10
2022-12-06T16:09:48.456Z,3.10
2022-12-06T16:12:16.938Z,3.10
2022-12-06T16:14:45.255Z,3.10
2022-12-06T16:17:13.432Z,3.10
2022-12-06T16:19:58.967Z,3.10
2022-12-06T16:22:41.166Z,3.10
2022-12-06T16:25:11.283Z,3.00
2022-12-06T16:27:39.386Z,3.10
2022-12-06T16:30:08.632Z,3.10
2022-12-06T16:32:36.778Z,3.00
2022-12-06T16:35:05.771Z,2.90
2022-12-06T16:37:33.884Z,2.90
2022-12-06T16:40:02.048Z,2.90
2022-12-06T16:42:31.594Z,2.90
2022-12-06T16:45:00.043Z,2.80
2022-12-06T16:49:56.846Z,2.80
2022-12-06T16:52:25.121Z,2.80
2022-12-06T16:54:53.264Z,2.80
2022-12-06T16:57:21.502Z,2.80
2022-12-06T16:59:51.722Z,2.80
2022-12-06T17:02:29.232Z,2.80
2022-12-06T17:04:57.491Z,2.70
2022-12-06T17:07:25.691Z,2.70
2022-12-06T17:09:55.712Z,2.70
2022-12-06T17:12:23.976Z,2.60
2022-12-06T17:14:53.657Z,2.60
2022-12-06T17:17:25.930Z,2.50
2022-12-06T17:19:56.153Z,2.60
2022-12-06T17:22:24.463Z,2.60
2022-12-06T17:24:52.588Z,2.60
2022-12-06T17:27:20.637Z,2.50
2022-12-06T17:29:48.765Z,2.50
2022-12-06T17:32:18.944Z,2.50
2022-12-06T17:34:47.084Z,2.50
2022-12-06T17:37:15.265Z,2.50
2022-12-06T17:39:43.545Z,2.50
2022-12-06T17:42:30.963Z,2.60
2022-12-06T17:45:00.245Z,2.50
2022-12-06T17:47:30.544Z,2.60
2022-12-06T17:49:58.870Z,2.60
2022-12-06T17:52:27.057Z,2.60
2022-12-06T17:54:59.069Z,2.60
2022-12-06T17:57:27.364Z,2.60
2022-12-06T17:59:55.448Z,2.60
2022-12-06T18:02:25.967Z,2.60
2022-12-06T18:04:56.563Z,2.60
2022-12-06T18:07:25.237Z,2.60
2022-12-06T18:09:54.954Z,2.60
2022-12-06T18:12:23.087Z,2.60
2022-12-06T18:14:52.316Z,2.60
2022-12-06T18:17:20.836Z,2.60
2022-12-06T18:19:49.626Z,2.60
2022-12-06T18:22:20.278Z,2.50
2022-12-06T18:24:48.428Z,2.60
2022-12-06T18:27:18.656Z,2.70
2022-12-06T18:29:46.740Z,2.60
2022-12-06T18:32:15.453Z,2.60
2022-12-06T18:34:43.667Z,2.70
2022-12-06T18:37:11.806Z,2.60
2022-12-06T18:39:41.201Z,2.70
2022-12-06T18:42:09.374Z,2.70
2022-12-06T18:44:37.949Z,2.60
2022-12-06T18:47:06.020Z,2.70
2022-12-06T18:49:34.223Z,2.60
2022-12-06T18:52:02.440Z,2.60
2022-12-06T18:54:31.269Z,2.60
2022-12-06T18:57:01.240Z,2.70
2022-12-06T18:59:29.408Z,2.70
2022-12-06T19:01:58.065Z,2.70
2022-12-06T19:04:26.409Z,2.70
2022-12-06T19:06:54.697Z,2.70
2022-12-06T19:09:24.500Z,2.60
2022-12-06T19:11:52.444Z,2.60
2022-12-06T19:14:23.221Z,2.60
2022-12-06T19:16:53.085Z,2.70
2022-12-06T19:19:23.187Z,2.70
2022-12-06T19:21:58.788Z,2.60
2022-12-06T19:24:27.679Z,2.60
2022-12-06T19:26:57.991Z,2.60
2022-12-06T19:29:28.644Z,2.70
2022-12-06T19:31:56.842Z,2.70
2022-12-06T19:34:27.008Z,2.70
2022-12-06T19:36:56.899Z,2.60
2022-12-06T19:39:25.666Z,2.60
2022-12-06T19:42:11.272Z,2.60
2022-12-06T19:44:41.197Z,2.60
2022-12-06T19:47:09.302Z,2.60
2022-12-06T19:49:37.356Z,2.60
2022-12-06T19:52:05.728Z,2.70
2022-12-06T19:54:35.895Z,2.70
2022-12-06T19:57:04.611Z,2.60
2022-12-06T19:59:34.975Z,2.70
2022-12-06T20:02:05.256Z,2.60
2022-12-06T20:04:35.860Z,2.60
2022-12-06T20:07:04.822Z,2.60
2022-12-06T20:09:34.184Z,2.60
2022-12-06T20:12:04.774Z,2.70
2022-12-06T20:14:37.505Z,2.70
2022-12-06T20:17:08.672Z,2.50
2022-12-06T20:19:37.238Z,2.60
2022-12-06T20:22:05.701Z,2.60
2022-12-06T20:24:33.837Z,2.60
2022-12-06T20:27:02.016Z,2.60
2022-12-06T20:29:32.905Z,2.60
2022-12-06T20:32:02.154Z,2.70
2022-12-06T20:34:33.888Z,2.70
2022-12-06T20:37:04.230Z,2.70
2022-12-06T20:39:36.266Z,2.70
2022-12-06T20:42:05.783Z,2.70
2022-12-06T20:44:34.527Z,2.70
2022-12-06T20:47:02.797Z,2.80
2022-12-06T20:49:32.524Z,2.70
2022-12-06T20:52:02.932Z,2.70
2022-12-06T20:54:31.462Z,2.70
2022-12-06T20:57:06.318Z,2.70
2022-12-06T20:59:34.468Z,2.70
2022-12-06T21:02:03.094Z,2.70
2022-12-06T21:04:32.779Z,2.70
2022-12-06T21:07:01.092Z,2.70
2022-12-06T21:09:29.501Z,2.70
2022-12-06T21:11:58.258Z,2.70
2022-12-06T21:14:26.874Z,2.70
2022-12-06T21:16:54.981Z,2.80
2022-12-06T21:19:23.153Z,2.70
2022-12-06T21:21:55.368Z,2.70
2022-12-06T21:24:23.459Z,2.80
2022-12-06T21:26:52.009Z,2.70
2022-12-06T21:29:29.732Z,2.70
2022-12-06T21:32:00.934Z,2.70
2022-12-06T21:34:31.181Z,2.70
2022-12-06T21:37:01.234Z,2.70
2022-12-06T21:39:29.565Z,2.70
2022-12-06T21:41:57.726Z,2.60
2022-12-06T21:44:25.868Z,2.60
2022-12-06T21:46:54.408Z,2.60
2022-12-06T21:49:23.075Z,2.60
2022-12-06T21:51:55.066Z,2.60
2022-12-06T21:54:28.069Z,2.60
2022-12-06T21:56:57.484Z,2.60
2022-12-06T21:59:26.887Z,2.60
2022-12-06T22:01:54.967Z,2.50
2022-12-06T22:04:23.071Z,2.50
2022-12-06T22:06:51.058Z,2.50
2022-12-06T22:09:19.129Z,2.50
2022-12-06T22:11:49.287Z,2.50
2022-12-06T22:14:17.408Z,2.50
2022-12-06T22:16:45.446Z,2.50
2022-12-06T22:19:13.511Z,2.50
2022-12-06T22:21:41.700Z,2.50
2022-12-06T22:24:10.363Z,2.40
2022-12-06T22:26:38.717Z,2.40
2022-12-06T22:29:08.145Z,2.40
2022-12-06T22:31:36.753Z,2.40
2022-12-06T22:34:04.978Z,2.40
2022-12-06T22:36:34.265Z,2.40
2022-12-06T22:39:05.321Z,2.40
2022-12-06T22:41:34.069Z,2.40
2022-12-06T22:44:04.951Z,2.40
2022-12-06T22:46:36.714Z,2.40
2022-12-06T22:49:06.014Z,2.30
2022-12-06T22:51:35.897Z,2.40
2022-12-06T22:54:05.772Z,2.30
2022-12-06T22:56:35.539Z,2.30
2022-12-06T22:59:04.085Z,2.30
2022-12-06T23:01:35.075Z,2.40
2022-12-06T23:04:05.310Z,2.30
2022-12-06T23:06:33.874Z,2.30
2022-12-06T23:09:02.229Z,2.20
2022-12-06T23:11:33.091Z,2.30
2022-12-06T23:14:02.839Z,2.30
2022-12-06T23:16:31.825Z,2.30
2022-12-06T23:19:02.993Z,2.30
2022-12-06T23:21:32.837Z,2.20
2022-12-06T23:24:03.236Z,2.30
2022-12-06T23:26:34.316Z,2.30
2022-12-06T23:29:02.612Z,2.30
2022-12-06T23:31:33.086Z,2.20
2022-12-06T23:34:05.182Z,2.20
2022-12-06T23:36:34.719Z,2.20
2022-12-06T23:39:03.354Z,2.20
2022-12-06T23:41:32.839Z,2.30
2022-12-06T23:44:01.176Z,2.20
2022-12-06T23:46:32.083Z,2.30
2022-12-06T23:49:02.759Z,2.20
2022-12-06T23:51:34.033Z,2.20
2022-12-06T23:54:03.512Z,2.20
2022-12-06T23:56:33.454Z,2.30
2022-12-06T23:59:02.586Z,2.20
